createdAt,value
2023-01-11T00:09:16.153Z,10.10
2023-01-11T00:31:02.343Z,9.50
2023-01-11T00:52:48.040Z,9.00
2023-01-11T01:14:34.157Z,8.90
2023-01-11T01:36:19.898Z,8.30
2023-01-11T01:58:12.924Z,6.80
2023-01-11T04:01:12.387Z,8.40
2023-01-11T04:22:55.553Z,7.50
2023-01-11T04:44:38.674Z,9.20
2023-01-11T05:06:22.125Z,7.80
2023-01-11T05:28:05.950Z,9.30
2023-01-11T05:49:49.061Z,5.40
2023-01-11T06:11:32.145Z,4.50
2023-01-11T06:33:15.489Z,4.60
2023-01-11T06:54:58.625Z,4.30
2023-01-11T07:16:43.211Z,3.80
2023-01-11T07:38:30.012Z,3.40
2023-01-11T08:00:15.399Z,4.00
2023-01-11T08:22:06.494Z,4.00
2023-01-11T08:43:50.170Z,4.40
2023-01-11T09:05:35.240Z,4.00
2023-01-11T09:27:19.305Z,4.60
2023-01-11T09:49:04.391Z,4.80
2023-01-11T10:33:17.756Z,5.00
2023-01-11T10:55:02.448Z,4.50
2023-01-11T11:16:59.209Z,3.40
2023-01-11T11:39:00.322Z,3.10
2023-01-11T12:00:48.351Z,3.10
2023-01-11T12:22:31.491Z,3.00
2023-01-11T12:44:52.194Z,2.90
2023-01-11T13:06:40.951Z,3.70
2023-01-11T13:28:34.443Z,3.90
2023-01-11T13:50:24.703Z,3.80
2023-01-11T14:12:23.894Z,5.30
2023-01-11T14:34:47.517Z,4.60
2023-01-11T14:56:47.885Z,4.90
2023-01-11T15:18:32.489Z,4.00
2023-01-11T15:40:20.234Z,5.10
2023-01-11T16:02:36.136Z,6.00
2023-01-11T16:24:24.746Z,7.50
2023-01-11T16:46:28.373Z,4.20
2023-01-11T17:08:28.064Z,5.70
2023-01-11T17:30:18.005Z,4.70
2023-01-11T17:52:10.281Z,6.50
2023-01-11T18:13:55.216Z,5.70
2023-01-11T18:35:45.478Z,5.30
2023-01-11T18:57:29.740Z,5.90
2023-01-11T19:19:13.002Z,5.90
2023-01-11T19:41:05.242Z,4.10
2023-01-11T20:02:51.397Z,4.60
2023-01-11T20:46:32.418Z,6.40
2023-01-11T21:08:16.408Z,5.20
2023-01-11T21:30:00.694Z,5.70
2023-01-11T21:51:43.856Z,5.70
2023-01-11T22:13:29.342Z,5.40
2023-01-11T22:35:13.223Z,6.80
2023-01-11T22:56:57.993Z,6.70
2023-01-11T23:18:50.892Z,6.60
2023-01-11T23:40:57.601Z,7.40
